Wednesday, August 27, 2014
21:05 UTC
  |  Log In   |  Register Free
Airport Search:

Tyler Pounds Regional Airport
(KTYR)

FAA data valid effective July 24, 2014 until September 18, 2014 (unless otherwise noted).

 
 
 
 
 
 
 
 
 
 
 
 
 
 

Current Aviation Weather for Tyler Pounds Regional Airport (KTYR)

The most recent METAR observation for KTYR was updated at: 1853 UTC
METAR Summary (Translated METAR)
KTYR
281853Z 30006KT 10SM FEW034 SCT080 33/23 A3009 RMK AO2 SLP180 T03330233
KJDD
(23.8 nm NW from KTYR)
281835Z AUTO 03005KT 10SM SCT033 33/25 A3011 RMK AO2
TAF Summary (Translated TAF)
KTYR
271720Z 2718/2818 09007KT P6SM SCT250 FM271900 10007KT P6SM FEW050 SCT250 FM280100 10004KT P6SM SCT250 FM281330 15005KT P6SM FEW050
  Airport Weather Conditions for KTYR

 Current Weather at TYR
94° F
Fair
East winds at 12.7 mph
TYR NOAA Radar

Pressure: 30.03 in
Humidity: 31%
Wind: from the East at 12.7 gusting to 18.4 MPH (11 gusting to 16 KT)
Dew Point: 59.0°F
Visibility: 10.00 mi


Airport Weather Forecast for KTYR

Translated METAR and TAF for KTYR
Translated METAR for KTYR (2058 UTC 27 August 2014)
found at http://aviationweather.gov/adds/metars/
 
METAR text: KTYR 272053Z VRB06KT 10SM CLR 34/14 A3000 RMK AO2 SLP151 T03440139 58019
Conditions at: KTYR (TYLER , TX, US) observed 2053 UTC 27 August 2014
Temperature: 34.4°C (94°F)
Dewpoint: 13.9°C (57°F) [RH = 29%]
Pressure (altimeter): 30.00 inches Hg (1016.0 mb)
[Sea-level pressure: 1015.1 mb]
Winds: variable direction winds at 7 MPH (6 knots; 3.1 m/s)
Visibility: 10 or more miles (16+ km)
Ceiling: at least 12,000 feet AGL
Clouds: sky clear below 12,000 feet AGL
Weather: no significant weather observed at this time
Translated TAF for KTYR
Forecast for: KTYR (TYLER , TX, US)
TAF Text: KTYR 271720Z 2718/2818 09007KT P6SM SCT250
Forecast period: 1800 to 1900 UTC 27 August 2014
Forecast type: FROM: standard forecast or significant change
Winds: from the E (90 degrees) at 8 MPH (7 knots; 3.6 m/s)
Visibility: 6 or more miles (10+ km)
Clouds: scattered clouds at 25000 feet AGL
Weather: no significant weather forecast for this period
TAF Text: FM271900 10007KT P6SM FEW050 SCT250
Forecast period: 1900 UTC 27 August 2014 to 0100 UTC 28 August 2014
Forecast type: FROM: standard forecast or significant change
Winds: from the E (100 degrees) at 8 MPH (7 knots; 3.6 m/s)
Visibility: 6 or more miles (10+ km)
Clouds: few clouds at 5000 feet AGL
scattered clouds at 25000 feet AGL
Weather: no significant weather forecast for this period
TAF Text: FM280100 10004KT P6SM SCT250
Forecast period: 0100 to 1330 UTC 28 August 2014
Forecast type: FROM: standard forecast or significant change
Winds: from the E (100 degrees) at 5 MPH (4 knots; 2.1 m/s)
Visibility: 6 or more miles (10+ km)
Clouds: scattered clouds at 25000 feet AGL
Weather: no significant weather forecast for this period
TAF Text: FM281330 15005KT P6SM FEW050
Forecast period: 1330 to 1800 UTC 28 August 2014
Forecast type: FROM: standard forecast or significant change
Winds: from the SSE (150 degrees) at 6 MPH (5 knots; 2.6 m/s)
Visibility: 6 or more miles (10+ km)
Clouds: few clouds at 5000 feet AGL
Weather: no significant weather forecast for this period

Find All Airport Services Find A Hotel Find A Rental Car Find A Golf Course Find A Restaurant $100 Hamburger



FBO's on the Field
FBO Company Facility Photos Services Transportation Aviation Fuel Prices: Prices include tax
Catering Weather Repair Courtesy Rental Type 100LL JetA JetA+ MOGAS 8087
 
Jet Center of Tyler

Currently rated 5 by 1 person
FS:Phillips66
Last Updated: Aug-26
Login to update fuel prices
SS:
Contact Jet Center of TylerMore FBO Information
 
Johnson Aviation, Inc

Currently rated 3.2 by 1 person
FS:Avfuel
Last Updated: Jul-21
Login to update fuel prices
SS:
Contact Johnson Aviation, IncMore FBO Information
 
Add another FBO Facility Photos Catering Weather Repair Courtesy Rental Type 100LL JetA JetA+ MOGAS 8087
Services Transportation Aviation Fuel Prices: Prices include tax


GlobalAir.com Airport Resource Center model-print
model-print
model-print
model-print